Latest Weather Observations for Fortescue Dave Forrest

IDW60801

Issued at 1:32 pm WST Thursday 18 December 2014 (issued every 30 minutes, with the page automatically refreshed every 10 minutes)

About weather observations | Map of weather stations | Latest weather observations for WA | Other Formats
Station Details ID: 505056 Name: FORTESCUE DAVE FORREST Lat: -22.29 Lon: 119.43 Height: 474.6 m
Data from the previous 72 hours. | See also: Recent months for locations in Western Australia
Date/Time
WST
Temp
°C
App
Temp
°C
Dew
Point
Rel
Hum
%
Delta-T
°C
Wind Press
QNH
hPa
Press
MSL
hPa
Rain
since 9 am
mm
Dir
 
Spd
km/h
Gust
km/h
Spd
kts
Gust
kts
18/01:30pm 39.6 38.4 15.0 23 15.9 N 15 26 8 14 1007.8 1003.8 0.0
18/01:00pm 38.4 38.0 15.3 25 14.9 NNE 11 19 6 10 1008.2 1004.3 0.0
18/12:30pm 38.4 38.7 15.9 26 14.6 NNW 9 20 5 11 1008.5 1004.6 0.0
18/12:00pm 37.1 36.9 15.8 28 13.8 NE 11 20 6 11 1008.7 1004.8 0.0
18/11:30am 36.7 36.9 15.7 28 13.5 NNE 9 17 5 9 1009.1 1005.1 0.0
18/11:00am 36.0 36.0 16.2 31 12.8 E 11 24 6 13 1009.5 1005.5 0.0
18/10:30am 35.1 35.4 16.0 32 12.3 ESE 9 15 5 8 1009.7 1005.7 0.0
18/10:00am 33.9 35.1 16.8 36 11.1 SE 6 11 3 6 1009.8 1005.8 0.0
18/09:30am 31.9 33.5 17.9 43 9.2 W 6 15 3 8 1010.1 1006.2 0.0
18/09:00am 30.5 32.3 18.7 49 7.8 W 7 13 4 7 1010.1 1006.2 -
18/08:30am 29.1 31.4 19.5 56 6.4 NNW 6 15 3 8 1010.2 1006.3 -
18/08:00am 27.5 29.2 19.4 61 5.3 NW 9 17 5 9 1010.2 1006.3 -
18/07:30am 26.2 27.6 19.6 67 4.3 NNW 11 19 6 10 1010.0 1006.1 -
18/07:00am 25.3 25.8 20.1 73 3.4 NNW 17 22 9 12 1009.8 1005.8 -
18/06:30am 24.7 25.7 20.2 76 3.0 NNW 15 20 8 11 1009.7 1005.7 -
18/06:00am 24.0 24.9 20.0 78 2.6 NNW 15 20 8 11 1009.1 1005.1 -
18/05:30am 23.8 24.2 19.9 79 2.6 NNW 17 20 9 11 1008.6 1004.7 -
18/05:00am 23.9 25.1 19.8 78 2.7 NW 13 19 7 10 1008.1 1004.2 -
18/04:30am 24.1 24.4 19.6 76 2.9 NW 17 22 9 12 1008.2 1004.3 -
18/04:00am 24.4 24.9 19.3 73 3.3 NNW 15 22 8 12 1008.0 1004.1 -
18/03:30am 24.8 25.2 19.1 70 3.7 NNW 15 20 8 11 1008.0 1004.1 -
18/03:00am 25.2 25.8 18.5 66 4.3 NNW 13 19 7 10 1008.2 1004.3 0.0
18/02:30am 25.8 25.6 17.6 60 5.2 NW 15 19 8 10 1008.3 1004.4 -
18/02:00am 26.3 26.1 16.8 56 6.0 WNW 13 19 7 10 1008.6 1004.7 -
18/01:30am 26.8 25.7 16.4 53 6.5 NNW 17 22 9 12 1008.2 1004.3 -
18/01:00am 27.1 26.5 16.7 53 6.6 NNW 15 20 8 11 1008.5 1004.6 -
18/12:30am 27.3 27.2 17.8 56 6.1 NNW 15 24 8 13 1008.5 1004.6 -
18/12:00am 27.5 26.4 18.7 58 5.8 N 22 32 12 17 1008.3 1004.4 -
 
Date/Time
WST
Temp
°C
App
Temp
°C
Dew
Point
Rel
Hum
%
Delta-T
°C
Wind Press
QNH
hPa
Press
MSL
hPa
Rain
since 9 am
mm
Dir
 
Spd
km/h
Gust
km/h
Spd
kts
Gust
kts
17/11:30pm 27.9 27.2 18.7 57 6.0 NNW 20 28 11 15 1008.9 1005.0 -
17/11:00pm 28.7 27.1 18.3 53 6.8 NW 24 32 13 17 1009.2 1005.2 -
17/10:30pm 29.4 27.6 17.8 49 7.5 NW 24 33 13 18 1009.2 1005.2 -
17/10:00pm 30.3 27.3 17.7 46 8.2 NW 30 39 16 21 1008.8 1004.9 -
17/09:30pm 31.1 28.2 18.0 45 8.6 NW 30 39 16 21 1008.2 1004.3 -
17/09:00pm 31.7 28.9 17.2 42 9.4 NNW 28 39 15 21 1007.8 1003.8 -
17/08:30pm 32.5 29.1 16.8 39 10.1 NNW 30 41 16 22 1007.1 1003.1 -
17/08:00pm 33.4 28.9 16.5 36 10.9 NNW 35 46 19 25 1006.3 1002.4 -
17/07:30pm 34.5 30.5 16.2 33 11.8 N 32 44 17 24 1005.7 1001.7 0.0
17/07:00pm 36.7 33.8 16.0 29 13.4 NNW 26 39 14 21 1005.2 1001.2 0.0
17/06:30pm 37.4 34.9 16.1 28 13.8 NNW 24 33 13 18 1004.8 1000.8 0.0
17/06:00pm 38.2 36.4 16.0 27 14.5 NNW 20 30 11 16 1004.6 1000.6 0.0
17/05:30pm 38.4 36.8 15.9 26 14.6 NNW 19 30 10 16 1004.2 1000.3 0.0
17/05:00pm 39.1 37.8 14.9 24 15.6 NNW 15 26 8 14 1004.2 1000.3 0.0
17/04:30pm 39.1 39.3 14.8 23 15.6 NW 7 20 4 11 1004.0 1000.0 0.0
17/04:00pm 39.8 38.0 14.4 22 16.3 NW 17 28 9 15 1004.0 1000.0 0.0
17/03:30pm 39.4 39.1 14.4 22 15.9 WSW 9 19 5 10 1004.1 1000.2 0.0
17/03:00pm 39.2 37.8 14.4 23 15.9 NW 15 28 8 15 1004.3 1000.4 0.0
17/02:30pm 38.6 38.0 14.7 24 15.3 NNW 11 19 6 10 1004.8 1000.8 0.0
17/02:00pm 38.2 37.3 14.9 25 14.9 NW 13 20 7 11 1005.0 1001.0 0.0
17/01:30pm 38.0 37.6 15.2 26 14.6 NW 11 22 6 12 1005.2 1001.2 0.0
17/01:00pm 37.3 36.6 15.4 27 14.1 NNW 13 26 7 14 1005.5 1001.5 0.0
17/12:30pm 37.6 37.6 15.1 26 14.4 NNW 9 19 5 10 1006.0 1002.1 0.0
17/12:00pm 36.1 35.8 15.4 29 13.3 NW 11 20 6 11 1006.5 1002.6 0.0
17/11:30am 34.8 35.3 16.6 33 11.8 ENE 9 20 5 11 1006.8 1002.8 0.0
17/11:00am 34.2 34.4 16.8 35 11.3 NNE 11 20 6 11 1007.4 1003.4 0.0
17/10:30am 33.0 33.0 18.0 41 9.9 NNW 15 22 8 12 1007.6 1003.6 0.0
17/10:00am 32.3 32.3 18.0 42 9.4 NNW 15 22 8 12 1007.9 1004.0 0.0
17/09:30am 31.0 31.4 18.1 46 8.4 NW 13 22 7 12 1007.9 1004.0 0.0
17/09:00am 29.4 30.0 18.7 52 7.0 NNW 13 20 7 11 1008.2 1004.3 0.0
17/08:30am 28.0 28.5 19.3 59 5.7 NNW 15 22 8 12 1008.3 1004.4 0.0
17/08:00am 27.0 27.9 19.3 62 5.1 NW 13 22 7 12 1008.3 1004.4 0.0
17/07:30am 26.0 26.4 19.9 69 4.0 NNW 17 24 9 13 1008.2 1004.3 0.0
17/07:00am 25.6 25.9 20.5 73 3.4 NNW 19 26 10 14 1007.9 1004.0 0.0
17/06:30am 24.9 25.1 20.5 76 2.9 NNW 20 24 11 13 1007.5 1003.5 0.0
17/06:00am 24.2 24.3 20.3 79 2.6 NNW 20 28 11 15 1007.2 1003.2 0.0
17/05:30am 24.0 24.3 20.3 80 2.4 NNW 19 26 10 14 1006.9 1002.9 0.0
17/05:00am 24.1 24.3 20.2 79 2.6 NNW 19 26 10 14 1006.4 1002.5 0.0
17/04:30am 24.6 25.8 20.0 75 3.0 NNW 13 19 7 10 1006.3 1002.4 0.0
17/04:00am 24.9 26.4 19.7 73 3.4 NNW 11 15 6 8 1006.1 1002.2 0.0
17/03:30am 25.2 25.9 19.6 71 3.7 NW 15 17 8 9 1006.3 1002.4 0.0
17/03:00am 25.4 25.7 19.5 70 3.9 NW 17 20 9 11 1006.4 1002.5 0.0
17/02:30am 25.7 26.2 19.3 67 4.2 NW 15 20 8 11 1006.8 1002.8 0.0
17/02:00am 26.4 26.3 18.7 62 5.0 NW 17 22 9 12 1007.0 1003.0 0.0
17/01:30am 27.1 26.4 18.2 58 5.8 NW 19 24 10 13 1006.9 1002.9 0.0
17/01:00am 27.7 26.5 17.4 53 6.6 NNW 20 26 11 14 1006.9 1002.9 0.0
17/12:30am 28.1 25.9 16.8 50 7.2 NNW 24 33 13 18 1007.1 1003.1 0.0
17/12:00am 28.8 26.9 15.7 45 8.2 NNW 20 28 11 15 1007.5 1003.5 0.0
 
Date/Time
WST
Temp
°C
App
Temp
°C
Dew
Point
Rel
Hum
%
Delta-T
°C
Wind Press
QNH
hPa
Press
MSL
hPa
Rain
since 9 am
mm
Dir
 
Spd
km/h
Gust
km/h
Spd
kts
Gust
kts
16/11:30pm 29.3 26.5 15.3 42 8.7 NW 24 32 13 17 1008.1 1004.2 0.0
16/11:00pm 30.1 26.6 14.5 38 9.7 NW 26 32 14 17 1008.4 1004.5 0.0
16/10:30pm 31.1 27.4 12.6 32 11.2 NW 24 32 13 17 1008.5 1004.6 0.0
16/10:00pm 31.6 28.1 13.3 32 11.2 NW 24 35 13 19 1008.3 1004.4 0.0
16/09:30pm 32.0 29.3 13.6 32 11.3 NNW 20 30 11 16 1008.0 1004.1 0.0
16/09:00pm 32.7 29.0 14.0 32 11.6 NW 26 33 14 18 1007.8 1003.8 0.0
16/08:30pm 33.4 29.4 14.2 31 12.0 NW 28 37 15 20 1007.6 1003.6 0.0
16/08:00pm 34.3 30.5 14.7 30 12.4 NW 28 35 15 19 1007.0 1003.0 0.0
16/07:30pm 35.2 32.0 15.2 30 12.7 NW 26 39 14 21 1006.4 1002.5 0.0
16/07:00pm 36.0 33.4 14.9 28 13.4 NW 22 32 12 17 1006.1 1002.2 0.0
16/06:30pm 36.7 33.6 14.6 26 14.0 NW 24 32 13 17 1005.8 1001.8 0.0
16/06:00pm 37.6 33.6 14.1 24 14.9 NNW 28 37 15 20 1005.3 1001.3 0.0
16/05:30pm 38.4 35.4 13.7 23 15.6 NW 22 32 12 17 1004.8 1000.8 0.0
16/05:00pm 38.4 34.8 13.2 22 15.8 NW 24 35 13 19 1004.6 1000.6 0.0
16/04:30pm 39.2 35.2 12.9 21 16.4 NNW 26 37 14 20 1004.7 1000.7 0.0
16/04:00pm 39.5 36.1 12.4 20 16.9 NW 22 33 12 18 1005.0 1001.0 0.0
16/03:30pm 39.8 36.1 12.8 20 16.9 NNW 24 37 13 20 1005.4 1001.4 0.0
16/03:00pm 38.9 35.3 13.1 21 16.2 NNW 24 39 13 21 1005.8 1001.8 0.0
16/02:30pm 39.3 36.4 12.8 20 16.5 NNW 20 33 11 18 1006.2 1002.3 0.0
16/02:00pm 38.4 35.7 12.8 21 16.0 NNW 19 30 10 16 1006.4 1002.5 0.0
16/01:30pm 39.1 36.2 13.0 21 16.3 NW 20 35 11 19 1006.9 1002.9 0.0
16/01:00pm 38.2 35.5 13.0 22 15.7 NW 19 30 10 16 1007.2 1003.2 0.0
16/12:30pm 37.7 35.1 13.1 23 15.3 NW 19 30 10 16 1007.5 1003.5 0.0
16/12:00pm 37.1 34.7 13.7 24 14.7 WNW 19 32 10 17 1007.7 1003.7 0.0
16/11:30am 37.5 35.1 13.9 24 14.9 NW 19 32 10 17 1008.0 1004.1 0.0
16/11:00am 36.4 34.7 14.6 27 13.8 NW 17 28 9 15 1008.4 1004.5 0.0
16/10:30am 34.9 33.0 15.7 31 12.3 NW 20 30 11 16 1008.9 1005.0 0.0
16/10:00am 33.9 31.7 15.0 32 12.0 NW 20 32 11 17 1009.3 1005.3 0.0
16/09:30am 33.2 31.9 15.8 35 11.1 NW 17 24 9 13 1009.3 1005.3 0.0
16/09:00am 32.1 30.6 16.3 38 10.1 WNW 19 30 10 16 1009.5 1005.5 0.0
16/08:30am 30.7 29.5 16.1 41 9.3 WNW 17 41 9 22 1009.5 1005.5 0.0
16/08:00am 29.8 28.3 16.3 44 8.6 NW 19 26 10 14 1009.5 1005.5 0.0
16/07:30am 28.4 27.5 16.9 49 7.3 NW 17 22 9 12 1009.6 1005.6 0.0
16/07:00am 28.0 27.8 17.6 53 6.7 NNW 15 19 8 10 1009.5 1005.5 0.0
16/06:30am 26.5 25.9 17.5 57 5.8 NNW 17 22 9 12 1008.8 1004.9 0.0
16/06:00am 25.7 23.8 17.6 61 5.2 NNW 24 32 13 17 1008.5 1004.6 0.0
16/05:30am 25.5 24.3 17.1 59 5.3 NNW 19 22 10 12 1008.0 1004.1 0.0
16/05:00am 25.6 24.0 16.6 57 5.7 NNW 20 24 11 13 1007.8 1003.8 0.0
16/04:30am 26.2 25.7 16.0 53 6.4 NNW 13 19 7 10 1007.6 1003.6 0.0
16/04:00am 26.7 26.8 15.5 50 7.0 NNW 9 13 5 7 1007.6 1003.6 0.0
16/03:30am 27.1 26.4 15.3 48 7.3 NW 13 19 7 10 1007.6 1003.6 0.0
16/03:00am 27.5 26.9 14.6 45 7.9 WNW 11 15 6 8 1007.8 1003.8 0.0
16/02:30am 28.2 26.5 13.7 41 8.8 WNW 15 19 8 10 1007.7 1003.7 0.0
16/02:00am 29.5 27.3 12.0 34 10.4 W 15 24 8 13 1008.0 1004.1 0.0
16/01:30am 29.5 26.5 11.8 33 10.5 NNW 19 24 10 13 1007.4 1003.4 0.0
16/01:00am 30.0 26.6 11.1 31 11.1 NNW 20 32 11 17 1007.5 1003.5 0.0
16/12:30am 30.5 27.0 10.9 29 11.5 NNW 20 30 11 16 1007.7 1003.7 0.0
16/12:00am 30.8 27.0 11.0 29 11.7 NW 22 32 12 17 1008.0 1004.1 0.0
 
Date/Time
WST
Temp
°C
App
Temp
°C
Dew
Point
Rel
Hum
%
Delta-T
°C
Wind Press
QNH
hPa
Press
MSL
hPa
Rain
since 9 am
mm
Dir
 
Spd
km/h
Gust
km/h
Spd
kts
Gust
kts
15/11:30pm 31.1 26.9 12.4 31 11.3 NNW 26 37 14 20 1008.0 1004.1 0.0
15/11:00pm 31.1 25.4 13.1 33 11.0 NNW 35 46 19 25 1008.1 1004.2 0.0
15/10:30pm 31.9 26.6 13.2 32 11.4 NW 33 46 18 25 1008.4 1004.5 0.0
15/10:00pm 32.6 28.4 13.4 31 11.8 NW 28 39 15 21 1008.5 1004.6 0.0
15/09:30pm 33.3 29.7 14.1 31 11.9 WNW 26 37 14 20 1008.6 1004.7 0.0
15/09:00pm 33.9 30.6 13.9 30 12.5 WNW 24 39 13 21 1008.3 1004.4 0.0
15/08:30pm 34.7 30.0 14.2 29 12.8 NW 32 43 17 23 1007.8 1003.8 0.0
15/08:00pm 36.2 33.1 14.6 27 13.7 NW 24 33 13 18 1007.1 1003.1 0.0
15/07:30pm 37.0 34.3 13.0 23 14.9 NW 19 26 10 14 1006.8 1002.8 0.0
15/07:00pm 37.5 34.2 12.7 22 15.4 NNW 22 30 12 16 1006.3 1002.4 0.0
15/06:30pm 38.3 34.5 12.5 21 16.0 NW 24 30 13 16 1005.8 1001.8 0.0
15/06:00pm 38.7 34.2 12.6 21 16.2 NNW 28 39 15 21 1005.7 1001.7 0.0
15/05:30pm 39.6 36.2 12.6 20 16.8 NNW 22 37 12 20 1005.4 1001.4 0.0
15/05:00pm 40.0 36.3 11.6 18 17.5 NNW 22 32 12 17 1005.4 1001.4 0.0
15/04:30pm 40.8 36.4 11.8 18 17.9 NW 26 35 14 19 1005.5 1001.5 0.0
15/04:00pm 40.0 36.7 11.7 18 17.5 NNW 20 37 11 20 1005.5 1001.5 0.0
15/03:30pm 40.3 37.6 11.8 18 17.6 WNW 17 32 9 17 1005.8 1001.8 0.0
15/03:00pm 41.2 38.0 12.0 17 18.2 NW 20 33 11 18 1005.9 1001.9 0.0
15/02:30pm 40.8 37.4 12.6 19 17.6 NNW 22 35 12 19 1006.4 1002.5 0.0
15/02:00pm 41.1 38.1 12.0 18 18.1 NW 19 32 10 17 1006.6 1002.7 0.0

Other Formats:

Comma delimited format used in spreadsheet applications
http://www.bom.gov.au/fwo/IDW60801/IDW60801.99736.axf

JavaScript Object Notation format (JSON) in row-major order
http://www.bom.gov.au/fwo/IDW60801/IDW60801.99736.json